This is the latest recevied weather packets stored in our database for station/object KQ4UWH. If no packets are shown the sender has not sent any weather packets the latest 1 day(s).
| Time | Temp. | Humidity | Pressure | Rain* | Wind** | Luminosity | Snow |
|---|---|---|---|---|---|---|---|
| 1778026033 | 22.78° C | 41% | 1239.7 hPa | 0 mm | 0 m/s | 7 W/m² | - |
| 1778025731 | 22.78° C | 41% | 1239.7 hPa | 0 mm | 0 m/s | 6 W/m² | - |
| 1778025428 | 22.78° C | 40% | 1239.7 hPa | 0 mm | 0 m/s | 9 W/m² | - |
| 1778025126 | 22.78° C | 40% | 1239.7 hPa | 0 mm | 0 m/s | 23 W/m² | - |
| 1778024823 | 23.33° C | 40% | 1239.7 hPa | 0 mm | 0 m/s | 24 W/m² | - |
| 1778024520 | 23.33° C | 39% | 1239.7 hPa | 0 mm | 0 m/s | 28 W/m² | - |
| 1778024216 | 23.33° C | 39% | 1239.7 hPa | 0 mm | 0 m/s | 28 W/m² | - |
| 1778023914 | 23.33° C | 39% | 1239.7 hPa | 0 mm | 0 m/s | 31 W/m² | - |
| 1778023612 | 23.89° C | 38% | 1239.7 hPa | 0 mm | 0.45 m/s, 116° | 34 W/m² | - |
| 1778023309 | 23.89° C | 38% | 1239.7 hPa | 0 mm | 0 m/s | 29 W/m² | - |
| 1778023005 | 24.44° C | 37% | 1239.7 hPa | 0 mm | 0 m/s | 29 W/m² | - |
| 1778022705 | 24.44° C | 38% | 1239.7 hPa | 0 mm | 0.45 m/s, 141° | 32 W/m² | - |
| 1778022402 | 24.44° C | 39% | 1239.7 hPa | 0 mm | 0.89 m/s, 119° | 35 W/m² | - |
| 1778022098 | 25° C | 39% | 1239.7 hPa | 0 mm | 0.45 m/s, 109° | 41 W/m² | - |
| 1778021794 | 25° C | 38% | 1239.7 hPa | 0 mm | 1.34 m/s, 200° | 40 W/m² | - |
| 1778021491 | 25° C | 40% | 1239.7 hPa | 0 mm | 0 m/s | 50 W/m² | - |
| 1778021188 | 25.56° C | 39% | 1239.7 hPa | 0 mm | 0 m/s | 50 W/m² | - |
| 1778020885 | 25.56° C | 37% | 1239.7 hPa | 0 mm | 0.45 m/s, 140° | 48 W/m² | - |
| 1778020582 | 26.11° C | 36% | 1239.7 hPa | 0 mm | 0.89 m/s, 166° | 165 W/m² | - |
| 1778020278 | 26.67° C | 34% | 1239.7 hPa | 0 mm | 0.45 m/s, 132° | 176 W/m² | - |
| 1778019975 | 26.67° C | 35% | 1239.7 hPa | 0 mm | 0 m/s | 203 W/m² | - |
| 1778019671 | 26.67° C | 35% | 1239.7 hPa | 0 mm | 0.45 m/s, 125° | 220 W/m² | - |
| 1778019368 | 26.67° C | 36% | 1239.7 hPa | 0 mm | 0.89 m/s, 132° | 240 W/m² | - |
| 1778019065 | 26.67° C | 35% | 1239.7 hPa | 0 mm | 0 m/s | 6 W/m² | - |
| 1778018762 | 26.67° C | 34% | 1239.7 hPa | 0 mm | 0.89 m/s, 103° | 277 W/m² | - |
* Rain latest hour (hover to see other rain measurements)
** Current wind speed in m/s (hover to see current wind gust speed)